Terminal Aerodrome Forecast
Issued by NWS

Home | Current Version | Previous Version | Text Only | Print | Product List | Glossary On
Versions: 1 2 3 4 5 6 7 8 9 10 11 12 13 14 15
000
FTUS42 KMLB 211700 RRA
TAFLEE
TAF
KLEE 211741Z 2118/2218 05013KT P6SM FEW045 SCT250
     FM220000 05008KT P6SM SCT035 SCT100
     FM221400 08012G19KT P6SM SCT030 BKN045=

USA.gov is the U.S. government's official web portal to all federal, state and local government web resources and services.